createdAt,value
2022-09-01T00:00:02.665Z,102365.44
2022-09-01T00:02:30.207Z,102369.19
2022-09-01T00:04:58.423Z,102363.22
2022-09-01T00:07:32.183Z,102364.00
2022-09-01T00:10:04.751Z,102354.78
2022-09-01T00:12:31.368Z,102354.44
2022-09-01T00:14:59.080Z,102358.75
2022-09-01T00:17:25.490Z,102350.31
2022-09-01T00:19:51.876Z,102363.28
2022-09-01T00:22:18.244Z,102355.44
2022-09-01T00:24:44.739Z,102350.25
2022-09-01T00:27:11.188Z,102349.41
2022-09-01T00:29:39.386Z,102352.38
2022-09-01T00:32:10.861Z,102351.81
2022-09-01T00:34:37.241Z,102348.56
2022-09-01T00:37:03.929Z,102353.88
2022-09-01T00:39:30.725Z,102351.47
2022-09-01T00:41:59.295Z,102350.91
2022-09-01T00:44:31.093Z,102354.94
2022-09-01T00:46:58.853Z,102341.94
2022-09-01T00:49:31.549Z,102348.69
2022-09-01T00:52:09.828Z,102335.69
2022-09-01T00:54:41.397Z,102344.00
2022-09-01T00:57:09.742Z,102338.03
2022-09-01T00:59:42.483Z,102336.94
2022-09-01T01:02:11.154Z,102337.44
2022-09-01T01:04:37.788Z,102347.66
2022-09-01T01:07:06.319Z,102342.53
2022-09-01T01:09:40.226Z,102338.44
2022-09-01T01:12:13.911Z,102333.59
2022-09-01T01:14:41.636Z,102334.09
2022-09-01T01:17:12.259Z,102328.41
2022-09-01T01:20:04.018Z,102334.28
2022-09-01T01:23:05.595Z,102331.53
2022-09-01T01:25:33.828Z,102332.59
2022-09-01T01:28:15.690Z,102330.41
2022-09-01T01:30:52.445Z,102326.34
2022-09-01T01:33:26.428Z,102331.72
2022-09-01T01:35:55.284Z,102330.09
2022-09-01T01:38:22.901Z,102328.47
2022-09-01T01:40:51.658Z,102326.31
2022-09-01T01:43:21.602Z,102322.47
2022-09-01T01:45:51.997Z,102328.09
2022-09-01T01:48:24.324Z,102321.34
2022-09-01T01:50:53.179Z,102325.94
2022-09-01T01:53:19.970Z,102319.38
2022-09-01T01:55:49.500Z,102329.59
2022-09-01T01:58:17.149Z,102338.72
2022-09-01T02:00:44.538Z,102336.03
2022-09-01T02:03:12.722Z,102331.47
2022-09-01T02:05:40.101Z,102330.09
2022-09-01T02:08:09.319Z,102332.25
2022-09-01T02:10:42.051Z,102333.81
2022-09-01T02:13:11.957Z,102327.59
2022-09-01T02:15:45.489Z,102325.16
2022-09-01T02:18:16.622Z,102327.28
2022-09-01T02:20:44.244Z,102328.34
2022-09-01T02:23:11.647Z,102329.34
2022-09-01T02:25:59.073Z,102333.34
2022-09-01T02:28:32.947Z,102340.13
2022-09-01T02:31:03.903Z,102335.81
2022-09-01T02:33:31.920Z,102330.16
2022-09-01T02:36:01.091Z,102330.16
2022-09-01T02:38:29.654Z,102327.47
2022-09-01T02:40:58.348Z,102325.84
2022-09-01T02:43:28.262Z,102330.66
2022-09-01T02:45:59.548Z,102329.59
2022-09-01T02:48:38.075Z,102334.97
2022-09-01T02:51:11.480Z,102335.50
2022-09-01T02:53:39.421Z,102334.09
2022-09-01T02:56:14.191Z,102331.66
2022-09-01T02:58:46.025Z,102327.91
2022-09-01T03:01:24.660Z,102327.34
2022-09-01T03:03:54.276Z,102319.25
2022-09-01T03:06:23.962Z,102313.56
2022-09-01T03:08:52.300Z,102321.88
2022-09-01T03:11:18.999Z,102317.00
2022-09-01T03:13:46.051Z,102312.44
2022-09-01T03:16:12.883Z,102321.88
2022-09-01T03:18:40.094Z,102320.81
2022-09-01T03:21:08.347Z,102319.72
2022-09-01T03:23:38.053Z,102320.75
2022-09-01T03:26:04.706Z,102319.94
2022-09-01T03:28:31.888Z,102319.38
2022-09-01T03:30:59.052Z,102321.75
2022-09-01T03:33:27.550Z,102317.41
2022-09-01T03:35:55.873Z,102313.66
2022-09-01T03:38:24.458Z,102317.19
2022-09-01T03:41:00.817Z,102318.25
2022-09-01T03:43:30.984Z,102316.84
2022-09-01T03:46:02.714Z,102317.69
2022-09-01T03:48:31.536Z,102315.22
2022-09-01T03:51:02.418Z,102311.72
2022-09-01T03:53:32.387Z,102306.84
2022-09-01T03:55:59.936Z,102310.84
2022-09-01T03:58:26.395Z,102307.59
2022-09-01T04:00:56.875Z,102308.91
2022-09-01T04:03:29.062Z,102298.94
2022-09-01T04:05:59.088Z,102305.66
2022-09-01T04:08:32.205Z,102309.13
2022-09-01T04:11:05.021Z,102306.13
2022-09-01T04:13:35.447Z,102316.09
2022-09-01T04:16:02.503Z,102313.41
2022-09-01T04:18:30.193Z,102310.38
2022-09-01T04:20:59.373Z,102311.38
2022-09-01T04:23:33.922Z,102309.44
2022-09-01T04:26:09.292Z,102310.97
2022-09-01T04:28:45.503Z,102311.72
2022-09-01T04:31:17.691Z,102314.97
2022-09-01T04:33:46.600Z,102309.81
2022-09-01T04:36:22.299Z,102309.03
2022-09-01T04:38:54.450Z,102307.88
2022-09-01T04:41:23.074Z,102303.00
2022-09-01T04:43:51.937Z,102310.72
2022-09-01T04:46:21.184Z,102311.47
2022-09-01T04:48:48.339Z,102306.81
2022-09-01T04:51:15.851Z,102308.38
2022-09-01T04:53:48.877Z,102302.19
2022-09-01T04:56:19.427Z,102303.00
2022-09-01T04:58:46.873Z,102306.25
2022-09-01T05:01:21.576Z,102309.78
2022-09-01T05:03:56.395Z,102312.19
2022-09-01T05:06:23.327Z,102311.94
2022-09-01T05:08:49.844Z,102310.88
2022-09-01T05:11:19.602Z,102315.47
2022-09-01T05:13:48.140Z,102315.22
2022-09-01T05:16:24.073Z,102320.91
2022-09-01T05:18:51.800Z,102315.88
2022-09-01T05:21:24.653Z,102311.63
2022-09-01T05:23:51.746Z,102320.25
2022-09-01T05:26:23.940Z,102323.84
2022-09-01T05:28:54.621Z,102314.81
2022-09-01T05:31:23.796Z,102321.06
2022-09-01T05:33:50.774Z,102314.16
2022-09-01T05:36:20.146Z,102323.28
2022-09-01T05:38:48.073Z,102313.81
2022-09-01T05:41:17.924Z,102318.22
2022-09-01T05:43:48.151Z,102313.97
2022-09-01T05:46:20.629Z,102321.03
2022-09-01T05:48:49.532Z,102324.38
2022-09-01T05:51:42.820Z,102325.03
2022-09-01T05:54:09.216Z,102322.66
2022-09-01T05:56:43.296Z,102320.22
2022-09-01T05:59:27.058Z,102318.47
2022-09-01T06:01:55.020Z,102314.06
2022-09-01T06:04:22.913Z,102327.25
2022-09-01T06:07:07.906Z,102325.81
2022-09-01T06:09:47.573Z,102330.50
2022-09-01T06:12:20.165Z,102331.50
2022-09-01T06:14:48.246Z,102336.91
2022-09-01T06:17:16.482Z,102330.03
2022-09-01T06:19:43.727Z,102328.34
2022-09-01T06:22:10.568Z,102327.03
2022-09-01T06:24:39.774Z,102327.97
2022-09-01T06:27:09.896Z,102326.97
2022-09-01T06:29:39.877Z,102329.97
2022-09-01T06:32:09.744Z,102321.25
2022-09-01T06:34:39.474Z,102334.22
2022-09-01T06:37:06.907Z,102329.66
2022-09-01T06:39:34.453Z,102338.56
2022-09-01T06:42:03.925Z,102335.66
2022-09-01T06:44:32.628Z,102332.66
2022-09-01T06:47:02.142Z,102334.84
2022-09-01T06:49:34.775Z,102342.13
2022-09-01T06:52:02.933Z,102340.78
2022-09-01T06:54:31.269Z,102343.19
2022-09-01T06:56:59.100Z,102345.34
2022-09-01T06:59:34.743Z,102347.25
2022-09-01T07:02:04.848Z,102347.25
2022-09-01T07:04:32.544Z,102337.72
2022-09-01T07:10:05.895Z,102347.16
2022-09-01T07:12:34.362Z,102348.47
2022-09-01T07:17:49.952Z,102352.97
2022-09-01T07:20:25.244Z,102351.81
2022-09-01T07:23:09.929Z,102349.88
2022-09-01T07:26:01.187Z,102343.81
2022-09-01T07:28:39.428Z,102357.59
2022-09-01T07:39:48.630Z,102351.13
2022-09-01T07:42:55.915Z,102351.22
2022-09-01T07:45:27.676Z,102347.63
2022-09-01T07:47:55.354Z,102347.19
2022-09-01T07:50:39.786Z,102354.31
2022-09-01T07:53:08.982Z,102354.00
2022-09-01T07:55:35.564Z,102360.28
2022-09-01T07:58:01.998Z,102351.31
2022-09-01T08:00:31.109Z,102349.09
2022-09-01T08:02:59.019Z,102351.97
2022-09-01T08:05:27.157Z,102349.94
2022-09-01T08:07:54.393Z,102352.56
2022-09-01T08:10:21.079Z,102351.75
2022-09-01T08:12:56.349Z,102350.69
2022-09-01T08:15:41.102Z,102341.66
2022-09-01T08:18:08.860Z,102354.19
2022-09-01T08:20:45.772Z,102344.53
2022-09-01T08:23:15.776Z,102348.00
2022-09-01T08:25:45.497Z,102349.22
2022-09-01T08:28:13.130Z,102345.97
2022-09-01T08:30:42.049Z,102344.59
2022-09-01T08:33:18.786Z,102340.13
2022-09-01T08:35:49.118Z,102348.38
2022-09-01T08:38:15.830Z,102355.66
2022-09-01T08:40:51.383Z,102352.81
2022-09-01T08:43:37.875Z,102337.41
2022-09-01T08:46:35.321Z,102341.25
2022-09-01T08:49:24.623Z,102338.56
2022-09-01T08:51:59.052Z,102343.31
2022-09-01T08:54:50.234Z,102333.66
2022-09-01T08:57:20.875Z,102340.28
2022-09-01T08:59:47.722Z,102333.41
2022-09-01T09:02:16.292Z,102339.94
2022-09-01T09:05:00.635Z,102333.50
2022-09-01T09:07:46.699Z,102331.09
2022-09-01T09:10:24.116Z,102321.31
2022-09-01T09:13:01.755Z,102334.19
2022-09-01T09:15:48.440Z,102327.09
2022-09-01T09:18:39.772Z,102325.34
2022-09-01T09:21:19.439Z,102326.47
2022-09-01T09:23:50.784Z,102332.56
2022-09-01T09:26:22.364Z,102319.22
2022-09-01T09:28:50.016Z,102320.78
2022-09-01T09:31:33.946Z,102314.78
2022-09-01T09:34:02.192Z,102307.59
2022-09-01T09:36:36.064Z,102308.91
2022-09-01T09:39:12.140Z,102304.88
2022-09-01T09:41:41.090Z,102297.91
2022-09-01T09:44:22.846Z,102301.34
2022-09-01T09:46:49.499Z,102299.13
2022-09-01T09:49:34.951Z,102303.03
2022-09-01T09:52:09.858Z,102290.81
2022-09-01T09:54:39.033Z,102292.59
2022-09-01T09:57:08.116Z,102282.31
2022-09-01T10:00:00.710Z,102286.66
2022-09-01T10:02:31.818Z,102271.66
2022-09-01T10:05:01.398Z,102283.16
2022-09-01T10:07:30.813Z,102273.97
2022-09-01T10:10:01.669Z,102276.91
2022-09-01T10:12:30.224Z,102273.81
2022-09-01T10:15:11.923Z,102265.81
2022-09-01T10:17:44.094Z,102265.13
2022-09-01T10:20:17.543Z,102264.31
2022-09-01T10:22:44.946Z,102259.50
2022-09-01T10:25:20.608Z,102270.03
2022-09-01T10:27:54.865Z,102264.34
2022-09-01T10:30:22.407Z,102259.53
2022-09-01T10:33:01.509Z,102263.19
2022-09-01T10:35:39.738Z,102258.59
2022-09-01T10:38:12.119Z,102260.44
2022-09-01T10:40:43.905Z,102255.41
2022-09-01T10:43:27.568Z,102258.56
2022-09-01T10:45:58.853Z,102260.72
2022-09-01T10:48:36.618Z,102263.00
2022-09-01T10:51:18.225Z,102242.72
2022-09-01T10:53:48.767Z,102246.13
2022-09-01T10:56:44.625Z,102247.88
2022-09-01T10:59:33.380Z,102234.16
2022-09-01T11:02:34.999Z,102245.06
2022-09-01T11:05:00.252Z,102238.28
2022-09-01T11:07:58.203Z,102232.03
2022-09-01T11:10:32.736Z,102236.94
2022-09-01T11:13:28.881Z,102232.94
2022-09-01T11:16:00.315Z,102233.59
2022-09-01T11:18:31.242Z,102235.28
2022-09-01T11:21:27.867Z,102232.84
2022-09-01T11:24:39.407Z,102237.34
2022-09-01T11:27:09.020Z,102237.53
2022-09-01T11:30:02.900Z,102240.16
2022-09-01T11:32:35.450Z,102228.91
2022-09-01T11:35:17.761Z,102227.84
2022-09-01T11:37:48.237Z,102228.72
2022-09-01T11:40:21.484Z,102235.31
2022-09-01T11:42:51.755Z,102222.16
2022-09-01T11:45:22.021Z,102215.22
2022-09-01T11:47:52.764Z,102223.81
2022-09-01T11:50:26.929Z,102221.72
2022-09-01T11:53:09.254Z,102220.28
2022-09-01T11:55:40.725Z,102216.84
2022-09-01T11:58:17.166Z,102207.47
2022-09-01T12:00:44.465Z,102205.94
2022-09-01T12:03:30.202Z,102205.81
2022-09-01T12:06:01.784Z,102196.88
2022-09-01T12:08:31.826Z,102205.00
2022-09-01T12:11:44.123Z,102188.97
2022-09-01T12:14:19.519Z,102190.88
2022-09-01T12:16:58.070Z,102199.31
2022-09-01T12:19:27.886Z,102195.09
2022-09-01T12:22:05.816Z,102193.03
2022-09-01T12:24:35.402Z,102196.63
2022-09-01T12:27:02.179Z,102193.00
2022-09-01T12:29:32.112Z,102182.03
2022-09-01T12:32:00.287Z,102186.81
2022-09-01T12:34:58.455Z,102183.25
2022-09-01T12:37:26.656Z,102183.16
2022-09-01T12:39:57.362Z,102183.16
2022-09-01T12:42:25.756Z,102172.78
2022-09-01T12:44:54.291Z,102196.53
2022-09-01T12:47:48.094Z,102187.47
2022-09-01T12:50:16.590Z,102173.78
2022-09-01T12:52:52.413Z,102174.91
2022-09-01T12:58:10.050Z,102177.03
2022-09-01T13:00:54.015Z,102161.31
2022-09-01T13:03:21.587Z,102160.81
2022-09-01T13:05:54.188Z,102161.06
2022-09-01T13:08:27.123Z,102161.19
2022-09-01T13:11:18.429Z,102167.63
2022-09-01T13:13:44.845Z,102162.16
2022-09-01T13:16:13.025Z,102148.50
2022-09-01T13:21:29.026Z,102148.13
2022-09-01T13:23:56.057Z,102151.34
2022-09-01T13:26:22.780Z,102136.81
2022-09-01T13:28:49.232Z,102151.88
2022-09-01T13:31:31.658Z,102141.97
2022-09-01T13:34:20.467Z,102135.94
2022-09-01T13:36:51.136Z,102131.47
2022-09-01T13:39:19.435Z,102134.81
2022-09-01T13:41:47.536Z,102132.75
2022-09-01T13:44:14.192Z,102132.50
2022-09-01T13:52:14.341Z,102119.72
2022-09-01T13:54:40.804Z,102120.50
2022-09-01T13:57:07.196Z,102111.03
2022-09-01T13:59:33.624Z,102116.00
2022-09-01T14:02:01.450Z,102116.69
2022-09-01T14:04:27.870Z,102113.97
2022-09-01T14:06:54.965Z,102106.50
2022-09-01T14:09:21.365Z,102103.09
2022-09-01T14:11:47.969Z,102108.56
2022-09-01T14:14:14.365Z,102100.09
2022-09-01T14:16:40.847Z,102096.59
2022-09-01T14:19:07.240Z,102104.56
2022-09-01T14:21:33.641Z,102095.38
2022-09-01T14:24:00.747Z,102105.72
2022-09-01T14:26:28.154Z,102099.06
2022-09-01T14:28:54.969Z,102088.41
2022-09-01T14:31:21.832Z,102089.38
2022-09-01T14:33:49.189Z,102078.53
2022-09-01T14:36:24.076Z,102088.53
2022-09-01T14:38:52.219Z,102083.28
2022-09-01T14:41:24.064Z,102075.84
2022-09-01T14:43:54.316Z,102075.84
2022-09-01T14:46:21.012Z,102079.84
2022-09-01T14:48:48.648Z,102085.19
2022-09-01T14:52:10.185Z,102062.63
2022-09-01T14:54:13.985Z,102066.63
2022-09-01T14:56:41.900Z,102068.78
2022-09-01T14:59:08.898Z,102060.84
2022-09-01T15:01:35.453Z,102058.06
2022-09-01T15:04:02.230Z,102058.25
2022-09-01T15:06:28.613Z,102056.31
2022-09-01T15:08:54.968Z,102057.78
2022-09-01T15:11:21.357Z,102054.47
2022-09-01T15:13:50.287Z,102039.19
2022-09-01T15:16:20.703Z,102042.53
2022-09-01T15:18:47.398Z,102035.28
2022-09-01T15:21:30.148Z,102042.50
2022-09-01T15:23:56.537Z,102038.47
2022-09-01T15:26:23.002Z,102043.59
2022-09-01T15:28:49.853Z,102026.31
2022-09-01T15:31:18.448Z,102032.28
2022-09-01T15:33:56.933Z,102024.19
2022-09-01T15:36:26.054Z,102030.19
2022-09-01T15:38:52.868Z,102034.81
2022-09-01T15:41:24.408Z,102030.28
2022-09-01T15:43:51.063Z,102035.06
2022-09-01T15:46:18.567Z,102021.22
2022-09-01T15:48:45.671Z,102021.09
2022-09-01T15:51:23.985Z,102025.91
2022-09-01T15:53:52.094Z,102021.38
2022-09-01T15:56:18.869Z,102013.81
2022-09-01T15:59:00.649Z,102017.50
2022-09-01T16:01:30.805Z,102015.91
2022-09-01T16:03:57.323Z,102019.44
2022-09-01T16:06:23.866Z,102011.81
2022-09-01T16:08:50.927Z,102011.75
2022-09-01T16:11:17.470Z,101995.94
2022-09-01T16:13:43.929Z,101997.78
2022-09-01T16:16:19.386Z,102010.56
2022-09-01T16:18:58.885Z,102007.78
2022-09-01T16:21:37.183Z,101998.59
2022-09-01T16:24:08.122Z,102000.03
2022-09-01T16:26:36.317Z,101996.22
2022-09-01T16:29:09.747Z,101991.22
2022-09-01T16:31:38.954Z,101983.38
2022-09-01T16:34:13.937Z,101985.53
2022-09-01T16:37:05.540Z,101980.75
2022-09-01T16:39:49.300Z,101977.47
2022-09-01T16:42:40.316Z,101975.81
2022-09-01T16:45:31.345Z,101973.63
2022-09-01T16:48:22.030Z,101978.22
2022-09-01T16:50:55.833Z,101982.31
2022-09-01T16:53:32.542Z,101979.94
2022-09-01T16:56:09.616Z,101984.38
2022-09-01T16:58:39.229Z,101968.31
2022-09-01T17:01:30.788Z,101979.97
2022-09-01T17:03:59.968Z,101964.50
2022-09-01T17:06:31.827Z,101981.38
2022-09-01T17:09:19.458Z,101972.75
2022-09-01T17:11:51.642Z,101981.91
2022-09-01T17:14:38.000Z,101974.50
2022-09-01T17:17:11.751Z,101980.53
2022-09-01T17:19:44.161Z,101985.28
2022-09-01T17:22:14.403Z,101983.59
2022-09-01T17:24:51.998Z,101986.16
2022-09-01T17:27:26.394Z,101971.41
2022-09-01T17:29:55.249Z,101976.91
2022-09-01T17:32:34.663Z,101981.28
2022-09-01T17:35:25.978Z,101980.19
2022-09-01T17:38:08.895Z,101983.03
2022-09-01T17:40:53.242Z,101979.28
2022-09-01T17:43:35.528Z,101972.31
2022-09-01T17:46:27.169Z,101969.38
2022-09-01T17:49:10.254Z,101969.75
2022-09-01T17:51:54.690Z,101967.06
2022-09-01T17:54:44.551Z,101974.16
2022-09-01T17:57:37.864Z,101973.13
2022-09-01T18:00:23.282Z,101969.94
2022-09-01T18:03:11.051Z,101971.94
2022-09-01T18:05:43.966Z,101981.22
2022-09-01T18:08:19.411Z,101972.72
2022-09-01T18:10:54.431Z,101982.47
2022-09-01T18:13:51.715Z,101982.03
2022-09-01T18:16:20.745Z,101982.28
2022-09-01T18:18:51.376Z,101983.16
2022-09-01T18:21:25.430Z,101981.59
2022-09-01T18:23:57.715Z,101976.09
2022-09-01T18:26:32.542Z,101977.72
2022-09-01T18:29:00.715Z,101979.88
2022-09-01T18:31:42.959Z,101986.81
2022-09-01T18:34:42.332Z,101984.59
2022-09-01T18:37:36.750Z,101986.72
2022-09-01T18:40:20.527Z,101991.56
2022-09-01T18:43:03.499Z,101998.00
2022-09-01T18:45:42.540Z,101997.69
2022-09-01T18:48:18.134Z,102003.97
2022-09-01T18:51:00.099Z,102003.78
2022-09-01T18:53:32.071Z,102004.09
2022-09-01T18:56:10.226Z,102007.47
2022-09-01T18:58:51.809Z,102013.53
2022-09-01T19:01:35.417Z,102016.56
2022-09-01T19:04:17.131Z,102025.03
2022-09-01T19:06:59.837Z,102018.53
2022-09-01T19:09:38.044Z,102020.56
2022-09-01T19:12:16.079Z,102017.94
2022-09-01T19:14:50.702Z,102023.97
2022-09-01T19:17:29.750Z,102026.63
2022-09-01T19:20:08.664Z,102022.06
2022-09-01T19:22:55.989Z,102018.81
2022-09-01T19:25:38.954Z,102020.00
2022-09-01T19:28:13.894Z,102019.66
2022-09-01T19:30:48.094Z,102024.22
2022-09-01T19:33:19.873Z,102021.72
2022-09-01T19:35:48.945Z,102028.03
2022-09-01T19:38:20.281Z,102027.94
2022-09-01T19:40:51.621Z,102031.91
2022-09-01T19:43:19.318Z,102023.84
2022-09-01T19:46:11.823Z,102031.31
2022-09-01T19:48:49.284Z,102031.22
2022-09-01T19:51:24.132Z,102040.84
2022-09-01T19:54:22.677Z,102045.41
2022-09-01T19:57:09.035Z,102042.81
2022-09-01T19:59:47.591Z,102044.50
2022-09-01T20:02:29.723Z,102034.53
2022-09-01T20:05:05.268Z,102040.16
2022-09-01T20:07:41.421Z,102040.34
2022-09-01T20:10:26.654Z,102039.44
2022-09-01T20:13:16.452Z,102036.00
2022-09-01T20:15:54.169Z,102033.47
2022-09-01T20:18:33.857Z,102034.16
2022-09-01T20:21:05.833Z,102038.34
2022-09-01T20:23:49.905Z,102036.84
2022-09-01T20:26:23.223Z,102033.03
2022-09-01T20:28:59.582Z,102043.13
2022-09-01T20:31:35.678Z,102042.41
2022-09-01T20:34:25.104Z,102037.94
2022-09-01T20:37:06.091Z,102036.91
2022-09-01T20:39:59.138Z,102036.91
2022-09-01T20:42:41.011Z,102031.66
2022-09-01T20:45:12.543Z,102034.16
2022-09-01T20:47:39.238Z,102029.63
2022-09-01T20:50:14.374Z,102033.28
2022-09-01T20:52:59.695Z,102037.41
2022-09-01T20:55:40.055Z,102045.28
2022-09-01T20:58:22.391Z,102036.50
2022-09-01T21:01:00.056Z,102034.94
2022-09-01T21:03:39.315Z,102036.88
2022-09-01T21:06:21.164Z,102038.22
2022-09-01T21:09:04.806Z,102036.91
2022-09-01T21:11:52.021Z,102036.19
2022-09-01T21:14:21.414Z,102033.56
2022-09-01T21:17:04.854Z,102035.75
2022-09-01T21:20:08.594Z,102026.66
2022-09-01T21:22:35.193Z,102033.75
2022-09-01T21:25:01.755Z,102033.00
2022-09-01T21:27:33.177Z,102023.81
2022-09-01T21:30:07.314Z,102033.34
2022-09-01T21:32:34.340Z,102027.19
2022-09-01T21:35:01.644Z,102032.66
2022-09-01T21:37:28.774Z,102025.09
2022-09-01T21:39:56.103Z,102018.88
2022-09-01T21:42:25.840Z,102025.44
2022-09-01T21:44:55.269Z,102023.31
2022-09-01T21:47:22.563Z,102025.53
2022-09-01T21:49:49.253Z,102019.31
2022-09-01T21:52:15.684Z,102015.88
2022-09-01T21:54:42.209Z,102019.41
2022-09-01T21:57:08.808Z,102007.81
2022-09-01T21:59:35.191Z,102008.09
2022-09-01T22:02:02.146Z,102007.88
2022-09-01T22:04:28.683Z,102010.59
2022-09-01T22:06:55.074Z,102007.66
2022-09-01T22:09:21.920Z,102010.63
2022-09-01T22:11:50.396Z,102008.47
2022-09-01T22:14:17.887Z,102001.22
2022-09-01T22:16:44.532Z,101998.78
2022-09-01T22:19:11.000Z,102007.78
2022-09-01T22:21:39.502Z,102007.50
2022-09-01T22:24:06.270Z,102001.59
2022-09-01T22:26:33.459Z,101998.38
2022-09-01T22:29:03.301Z,101993.81
2022-09-01T22:31:31.209Z,102002.47
2022-09-01T22:33:58.304Z,102002.25
2022-09-01T22:36:30.900Z,102003.63
2022-09-01T22:38:58.876Z,101997.69
2022-09-01T22:41:27.855Z,101995.78
2022-09-01T22:43:54.392Z,101989.03
2022-09-01T22:46:22.118Z,101988.47
2022-09-01T22:48:49.477Z,101980.13
2022-09-01T22:51:16.700Z,101979.63
2022-09-01T22:53:45.335Z,101982.38
2022-09-01T22:56:35.849Z,101987.78
2022-09-01T22:59:05.739Z,101980.50
2022-09-01T23:01:36.878Z,101981.06
2022-09-01T23:04:05.627Z,101979.47
2022-09-01T23:06:33.938Z,101976.50
2022-09-01T23:09:02.356Z,101975.44
2022-09-01T23:11:29.074Z,101977.63
2022-09-01T23:13:55.784Z,101977.38
2022-09-01T23:16:24.022Z,101968.19
2022-09-01T23:18:51.547Z,101973.06
2022-09-01T23:21:22.167Z,101970.66
2022-09-01T23:23:58.226Z,101968.78
2022-09-01T23:26:26.304Z,101967.19
2022-09-01T23:28:52.767Z,101961.53
2022-09-01T23:31:25.400Z,101969.09
2022-09-01T23:33:52.188Z,101964.78
2022-09-01T23:36:21.399Z,101958.31
2022-09-01T23:38:48.420Z,101946.16
2022-09-01T23:41:19.324Z,101954.53
2022-09-01T23:43:45.736Z,101948.63
2022-09-01T23:46:40.961Z,101944.56
2022-09-01T23:49:08.436Z,101941.06
2022-09-01T23:51:35.633Z,101941.06
2022-09-01T23:54:02.336Z,101935.13
2022-09-01T23:56:29.821Z,101933.81
2022-09-01T23:58:57.567Z,101935.19
